sensor_id;sensor_type;location;lat;lon;timestamp;temperature;humidity
79016;DHT22;72726;44.842;37.556;2023-11-22T00:00:22;8.03;87.53
79016;DHT22;72726;44.842;37.556;2023-11-22T00:01:23;8.06;87.60
79016;DHT22;72726;44.842;37.556;2023-11-22T00:02:26;8.11;87.52
79016;DHT22;72726;44.842;37.556;2023-11-22T00:03:30;8.13;87.38
79016;DHT22;72726;44.842;37.556;2023-11-22T00:04:32;8.15;87.41
79016;DHT22;72726;44.842;37.556;2023-11-22T00:05:33;8.22;87.52
79016;DHT22;72726;44.842;37.556;2023-11-22T00:06:34;8.22;87.59
79016;DHT22;72726;44.842;37.556;2023-11-22T00:07:36;8.21;87.33
79016;DHT22;72726;44.842;37.556;2023-11-22T00:08:38;8.24;87.35
79016;DHT22;72726;44.842;37.556;2023-11-22T00:09:39;8.19;87.18
79016;DHT22;72726;44.842;37.556;2023-11-22T00:10:40;8.24;87.20
79016;DHT22;72726;44.842;37.556;2023-11-22T00:11:42;8.25;87.18
79016;DHT22;72726;44.842;37.556;2023-11-22T00:12:43;8.24;87.14
79016;DHT22;72726;44.842;37.556;2023-11-22T00:13:45;8.24;86.99
79016;DHT22;72726;44.842;37.556;2023-11-22T00:14:46;8.24;86.86
79016;DHT22;72726;44.842;37.556;2023-11-22T00:15:48;8.25;86.72
79016;DHT22;72726;44.842;37.556;2023-11-22T00:16:51;8.24;86.62
79016;DHT22;72726;44.842;37.556;2023-11-22T00:17:53;8.22;86.69
79016;DHT22;72726;44.842;37.556;2023-11-22T00:18:54;8.22;86.81
79016;DHT22;72726;44.842;37.556;2023-11-22T00:19:55;8.25;86.79
79016;DHT22;72726;44.842;37.556;2023-11-22T00:20:57;8.22;86.68
79016;DHT22;72726;44.842;37.556;2023-11-22T00:22:00;8.25;86.66
79016;DHT22;72726;44.842;37.556;2023-11-22T00:23:01;8.22;86.60
79016;DHT22;72726;44.842;37.556;2023-11-22T00:24:04;8.26;86.52
79016;DHT22;72726;44.842;37.556;2023-11-22T00:25:06;8.28;86.46
79016;DHT22;72726;44.842;37.556;2023-11-22T00:26:07;8.26;86.39
79016;DHT22;72726;44.842;37.556;2023-11-22T00:27:11;8.26;86.41
79016;DHT22;72726;44.842;37.556;2023-11-22T00:28:16;8.29;86.46
79016;DHT22;72726;44.842;37.556;2023-11-22T00:29:20;8.32;86.40
79016;DHT22;72726;44.842;37.556;2023-11-22T00:30:22;8.30;86.52
79016;DHT22;72726;44.842;37.556;2023-11-22T00:31:24;8.32;86.47
79016;DHT22;72726;44.842;37.556;2023-11-22T00:32:25;8.33;86.51
79016;DHT22;72726;44.842;37.556;2023-11-22T00:33:27;8.35;86.38
79016;DHT22;72726;44.842;37.556;2023-11-22T00:34:28;8.35;86.29
79016;DHT22;72726;44.842;37.556;2023-11-22T00:35:29;8.36;86.19
79016;DHT22;72726;44.842;37.556;2023-11-22T00:36:31;8.38;86.16
79016;DHT22;72726;44.842;37.556;2023-11-22T00:37:32;8.39;86.07
79016;DHT22;72726;44.842;37.556;2023-11-22T00:38:34;8.39;86.06
79016;DHT22;72726;44.842;37.556;2023-11-22T00:39:37;8.40;86.05
79016;DHT22;72726;44.842;37.556;2023-11-22T00:40:38;8.42;86.02
79016;DHT22;72726;44.842;37.556;2023-11-22T00:41:40;8.43;86.04
79016;DHT22;72726;44.842;37.556;2023-11-22T00:42:41;8.45;86.10
79016;DHT22;72726;44.842;37.556;2023-11-22T00:43:43;8.47;86.15
79016;DHT22;72726;44.842;37.556;2023-11-22T00:44:45;8.46;86.19
79016;DHT22;72726;44.842;37.556;2023-11-22T00:45:46;8.47;86.15
79016;DHT22;72726;44.842;37.556;2023-11-22T00:46:48;8.49;86.13
79016;DHT22;72726;44.842;37.556;2023-11-22T00:47:50;8.50;86.24
79016;DHT22;72726;44.842;37.556;2023-11-22T00:48:53;8.52;86.29
79016;DHT22;72726;44.842;37.556;2023-11-22T00:49:56;8.52;86.29
79016;DHT22;72726;44.842;37.556;2023-11-22T00:50:58;8.50;86.50
79016;DHT22;72726;44.842;37.556;2023-11-22T00:52:00;8.50;86.48
79016;DHT22;72726;44.842;37.556;2023-11-22T00:53:02;8.49;86.57
79016;DHT22;72726;44.842;37.556;2023-11-22T00:54:04;8.53;86.72
79016;DHT22;72726;44.842;37.556;2023-11-22T00:55:06;8.54;86.75
79016;DHT22;72726;44.842;37.556;2023-11-22T00:56:08;8.53;86.93
79016;DHT22;72726;44.842;37.556;2023-11-22T00:57:10;8.54;87.05
79016;DHT22;72726;44.842;37.556;2023-11-22T00:58:11;8.59;87.16
79016;DHT22;72726;44.842;37.556;2023-11-22T00:59:13;8.57;87.25
79016;DHT22;72726;44.842;37.556;2023-11-22T01:00:15;8.61;87.53
79016;DHT22;72726;44.842;37.556;2023-11-22T01:01:17;8.66;87.62
79016;DHT22;72726;44.842;37.556;2023-11-22T01:02:19;8.67;87.83
79016;DHT22;72726;44.842;37.556;2023-11-22T01:03:22;8.71;87.96
79016;DHT22;72726;44.842;37.556;2023-11-22T01:04:23;8.73;87.91
79016;DHT22;72726;44.842;37.556;2023-11-22T01:05:25;8.75;88.09
79016;DHT22;72726;44.842;37.556;2023-11-22T01:06:27;8.77;88.17
79016;DHT22;72726;44.842;37.556;2023-11-22T01:07:30;8.83;88.21
79016;DHT22;72726;44.842;37.556;2023-11-22T01:08:32;8.85;88.11
79016;DHT22;72726;44.842;37.556;2023-11-22T01:09:33;8.88;88.05
79016;DHT22;72726;44.842;37.556;2023-11-22T01:10:35;8.92;88.03
79016;DHT22;72726;44.842;37.556;2023-11-22T01:11:37;8.94;88.09
79016;DHT22;72726;44.842;37.556;2023-11-22T01:12:39;8.98;88.11
79016;DHT22;72726;44.842;37.556;2023-11-22T01:13:40;9.00;88.22
79016;DHT22;72726;44.842;37.556;2023-11-22T01:14:44;9.02;88.37
79016;DHT22;72726;44.842;37.556;2023-11-22T01:15:46;9.07;88.32
79016;DHT22;72726;44.842;37.556;2023-11-22T01:16:48;9.10;88.40
79016;DHT22;72726;44.842;37.556;2023-11-22T01:17:50;9.12;88.62
79016;DHT22;72726;44.842;37.556;2023-11-22T01:18:52;9.18;88.96
79016;DHT22;72726;44.842;37.556;2023-11-22T01:19:53;9.25;88.83
79016;DHT22;72726;44.842;37.556;2023-11-22T01:20:56;9.32;89.28
79016;DHT22;72726;44.842;37.556;2023-11-22T01:21:58;9.36;89.30
79016;DHT22;72726;44.842;37.556;2023-11-22T01:22:59;9.44;89.48
79016;DHT22;72726;44.842;37.556;2023-11-22T01:24:01;9.54;89.53
79016;DHT22;72726;44.842;37.556;2023-11-22T01:25:02;9.57;89.41
79016;DHT22;72726;44.842;37.556;2023-11-22T01:26:05;9.66;89.07
79016;DHT22;72726;44.842;37.556;2023-11-22T01:27:07;9.73;88.96
79016;DHT22;72726;44.842;37.556;2023-11-22T01:28:08;9.78;88.73
79016;DHT22;72726;44.842;37.556;2023-11-22T01:29:12;9.83;88.46
79016;DHT22;72726;44.842;37.556;2023-11-22T01:30:13;9.91;88.52
79016;DHT22;72726;44.842;37.556;2023-11-22T01:31:16;9.91;88.35
79016;DHT22;72726;44.842;37.556;2023-11-22T01:32:21;9.97;88.31
79016;DHT22;72726;44.842;37.556;2023-11-22T01:33:23;10.02;88.22
79016;DHT22;72726;44.842;37.556;2023-11-22T01:34:24;10.05;88.21
79016;DHT22;72726;44.842;37.556;2023-11-22T01:35:26;10.11;88.16
79016;DHT22;72726;44.842;37.556;2023-11-22T01:36:28;10.16;88.02
79016;DHT22;72726;44.842;37.556;2023-11-22T01:37:29;10.21;88.00
79016;DHT22;72726;44.842;37.556;2023-11-22T01:38:31;10.22;87.87
79016;DHT22;72726;44.842;37.556;2023-11-22T01:39:35;10.23;87.75
79016;DHT22;72726;44.842;37.556;2023-11-22T01:40:46;10.29;87.79
79016;DHT22;72726;44.842;37.556;2023-11-22T01:41:48;10.30;87.66
79016;DHT22;72726;44.842;37.556;2023-11-22T01:42:50;10.33;87.70
79016;DHT22;72726;44.842;37.556;2023-11-22T01:43:52;10.39;87.71
79016;DHT22;72726;44.842;37.556;2023-11-22T01:44:53;10.39;87.62
79016;DHT22;72726;44.842;37.556;2023-11-22T01:45:55;10.42;87.49
79016;DHT22;72726;44.842;37.556;2023-11-22T01:46:57;10.45;87.60
79016;DHT22;72726;44.842;37.556;2023-11-22T01:48:00;10.43;87.48
79016;DHT22;72726;44.842;37.556;2023-11-22T01:49:02;10.47;87.66
79016;DHT22;72726;44.842;37.556;2023-11-22T01:50:06;10.49;87.48
79016;DHT22;72726;44.842;37.556;2023-11-22T01:51:07;10.53;87.54
79016;DHT22;72726;44.842;37.556;2023-11-22T01:52:09;10.52;87.57
79016;DHT22;72726;44.842;37.556;2023-11-22T01:53:12;10.57;87.26
79016;DHT22;72726;44.842;37.556;2023-11-22T01:54:14;10.63;87.28
79016;DHT22;72726;44.842;37.556;2023-11-22T01:55:16;10.63;87.16
79016;DHT22;72726;44.842;37.556;2023-11-22T01:56:18;10.64;87.32
79016;DHT22;72726;44.842;37.556;2023-11-22T01:57:20;10.66;87.24
79016;DHT22;72726;44.842;37.556;2023-11-22T01:58:22;10.68;87.25
79016;DHT22;72726;44.842;37.556;2023-11-22T01:59:29;10.67;87.19
79016;DHT22;72726;44.842;37.556;2023-11-22T02:00:50;10.73;87.12
79016;DHT22;72726;44.842;37.556;2023-11-22T02:01:55;10.73;87.01
79016;DHT22;72726;44.842;37.556;2023-11-22T02:02:57;10.77;86.89
79016;DHT22;72726;44.842;37.556;2023-11-22T02:03:58;10.77;86.80
79016;DHT22;72726;44.842;37.556;2023-11-22T02:04:59;10.80;86.58
79016;DHT22;72726;44.842;37.556;2023-11-22T02:06:01;10.81;86.62
79016;DHT22;72726;44.842;37.556;2023-11-22T02:07:02;10.83;86.50
79016;DHT22;72726;44.842;37.556;2023-11-22T02:08:04;10.85;86.38
79016;DHT22;72726;44.842;37.556;2023-11-22T02:09:05;10.84;86.50
79016;DHT22;72726;44.842;37.556;2023-11-22T02:10:07;10.85;86.54
79016;DHT22;72726;44.842;37.556;2023-11-22T02:11:09;10.88;86.72
79016;DHT22;72726;44.842;37.556;2023-11-22T02:12:10;10.90;86.51
79016;DHT22;72726;44.842;37.556;2023-11-22T02:13:11;10.91;86.12
79016;DHT22;72726;44.842;37.556;2023-11-22T02:14:15;10.94;85.83
79016;DHT22;72726;44.842;37.556;2023-11-22T02:15:16;10.98;86.04
79016;DHT22;72726;44.842;37.556;2023-11-22T02:16:18;10.98;85.95
79016;DHT22;72726;44.842;37.556;2023-11-22T02:17:20;11.02;85.85
79016;DHT22;72726;44.842;37.556;2023-11-22T02:18:23;11.08;85.80
79016;DHT22;72726;44.842;37.556;2023-11-22T02:19:24;11.11;85.67
79016;DHT22;72726;44.842;37.556;2023-11-22T02:20:25;11.11;85.59
79016;DHT22;72726;44.842;37.556;2023-11-22T02:21:26;11.14;85.46
79016;DHT22;72726;44.842;37.556;2023-11-22T02:22:28;11.16;85.24
79016;DHT22;72726;44.842;37.556;2023-11-22T02:23:29;11.18;85.12
79016;DHT22;72726;44.842;37.556;2023-11-22T02:24:30;11.23;85.30
79016;DHT22;72726;44.842;37.556;2023-11-22T02:25:34;11.23;85.33
79016;DHT22;72726;44.842;37.556;2023-11-22T02:26:35;11.28;85.39
79016;DHT22;72726;44.842;37.556;2023-11-22T02:27:37;11.29;85.28
79016;DHT22;72726;44.842;37.556;2023-11-22T02:28:38;11.29;85.25
79016;DHT22;72726;44.842;37.556;2023-11-22T02:29:40;11.32;85.26
79016;DHT22;72726;44.842;37.556;2023-11-22T02:30:41;11.33;85.27
79016;DHT22;72726;44.842;37.556;2023-11-22T02:31:42;11.33;85.10
79016;DHT22;72726;44.842;37.556;2023-11-22T02:32:44;11.35;85.08
79016;DHT22;72726;44.842;37.556;2023-11-22T02:33:45;11.35;85.03
79016;DHT22;72726;44.842;37.556;2023-11-22T02:34:47;11.38;84.77
79016;DHT22;72726;44.842;37.556;2023-11-22T02:35:48;11.40;84.50
79016;DHT22;72726;44.842;37.556;2023-11-22T02:36:50;11.43;84.41
79016;DHT22;72726;44.842;37.556;2023-11-22T02:37:52;11.44;84.31
79016;DHT22;72726;44.842;37.556;2023-11-22T02:38:53;11.49;84.32
79016;DHT22;72726;44.842;37.556;2023-11-22T02:40:19;11.52;84.31
79016;DHT22;72726;44.842;37.556;2023-11-22T02:41:20;11.52;84.37
79016;DHT22;72726;44.842;37.556;2023-11-22T02:42:21;11.53;84.32
79016;DHT22;72726;44.842;37.556;2023-11-22T02:43:22;11.55;84.45
79016;DHT22;72726;44.842;37.556;2023-11-22T02:44:24;11.53;84.48
79016;DHT22;72726;44.842;37.556;2023-11-22T02:45:27;11.57;84.57
79016;DHT22;72726;44.842;37.556;2023-11-22T02:46:28;11.62;84.92
79016;DHT22;72726;44.842;37.556;2023-11-22T02:47:32;11.65;84.92
79016;DHT22;72726;44.842;37.556;2023-11-22T02:48:35;11.62;83.60
79016;DHT22;72726;44.842;37.556;2023-11-22T02:49:37;11.40;82.27
79016;DHT22;72726;44.842;37.556;2023-11-22T02:50:38;11.16;82.60
79016;DHT22;72726;44.842;37.556;2023-11-22T02:51:40;10.94;83.29
79016;DHT22;72726;44.842;37.556;2023-11-22T02:52:41;10.77;83.96
79016;DHT22;72726;44.842;37.556;2023-11-22T02:53:43;10.61;84.36
79016;DHT22;72726;44.842;37.556;2023-11-22T02:54:47;10.43;83.80
79016;DHT22;72726;44.842;37.556;2023-11-22T02:55:48;10.26;84.15
79016;DHT22;72726;44.842;37.556;2023-11-22T02:56:49;10.06;84.04
79016;DHT22;72726;44.842;37.556;2023-11-22T02:57:51;9.95;84.78
79016;DHT22;72726;44.842;37.556;2023-11-22T02:58:52;9.81;85.14
79016;DHT22;72726;44.842;37.556;2023-11-22T02:59:54;9.73;85.54
79016;DHT22;72726;44.842;37.556;2023-11-22T03:00:55;9.58;86.05
79016;DHT22;72726;44.842;37.556;2023-11-22T03:01:58;9.47;86.44
79016;DHT22;72726;44.842;37.556;2023-11-22T03:02:59;9.35;87.21
79016;DHT22;72726;44.842;37.556;2023-11-22T03:04:00;9.18;87.85
79016;DHT22;72726;44.842;37.556;2023-11-22T03:05:02;9.10;88.24
79016;DHT22;72726;44.842;37.556;2023-11-22T03:06:04;9.00;88.76
79016;DHT22;72726;44.842;37.556;2023-11-22T03:07:05;8.88;89.18
79016;DHT22;72726;44.842;37.556;2023-11-22T03:08:07;8.81;89.74
79016;DHT22;72726;44.842;37.556;2023-11-22T03:09:08;8.74;89.86
79016;DHT22;72726;44.842;37.556;2023-11-22T03:10:10;8.67;90.10
79016;DHT22;72726;44.842;37.556;2023-11-22T03:11:11;8.64;90.40
79016;DHT22;72726;44.842;37.556;2023-11-22T03:12:13;8.59;90.61
79016;DHT22;72726;44.842;37.556;2023-11-22T03:13:15;8.57;90.72
79016;DHT22;72726;44.842;37.556;2023-11-22T03:14:17;8.59;90.90
79016;DHT22;72726;44.842;37.556;2023-11-22T03:15:18;8.57;91.03
79016;DHT22;72726;44.842;37.556;2023-11-22T03:16:19;8.53;91.14
79016;DHT22;72726;44.842;37.556;2023-11-22T03:17:22;8.52;91.24
79016;DHT22;72726;44.842;37.556;2023-11-22T03:18:24;8.52;91.29
79016;DHT22;72726;44.842;37.556;2023-11-22T03:19:27;8.53;91.36
79016;DHT22;72726;44.842;37.556;2023-11-22T03:20:28;8.52;91.44
79016;DHT22;72726;44.842;37.556;2023-11-22T03:21:29;8.53;91.34
79016;DHT22;72726;44.842;37.556;2023-11-22T03:22:30;8.49;90.43
79016;DHT22;72726;44.842;37.556;2023-11-22T03:23:32;8.53;89.52
79016;DHT22;72726;44.842;37.556;2023-11-22T03:24:33;8.53;89.04
79016;DHT22;72726;44.842;37.556;2023-11-22T03:25:39;8.54;89.06
79016;DHT22;72726;44.842;37.556;2023-11-22T03:26:41;8.54;88.38
79016;DHT22;72726;44.842;37.556;2023-11-22T03:27:43;8.57;88.42
79016;DHT22;72726;44.842;37.556;2023-11-22T03:28:45;8.60;88.53
79016;DHT22;72726;44.842;37.556;2023-11-22T03:29:47;8.57;88.93
79016;DHT22;72726;44.842;37.556;2023-11-22T03:30:48;8.56;89.03
79016;DHT22;72726;44.842;37.556;2023-11-22T03:31:50;8.52;88.89
79016;DHT22;72726;44.842;37.556;2023-11-22T03:32:52;8.49;89.28
79016;DHT22;72726;44.842;37.556;2023-11-22T03:33:57;8.46;89.79
79016;DHT22;72726;44.842;37.556;2023-11-22T03:34:58;8.46;90.16
79016;DHT22;72726;44.842;37.556;2023-11-22T03:35:59;8.47;90.34
79016;DHT22;72726;44.842;37.556;2023-11-22T03:37:00;8.46;90.46
79016;DHT22;72726;44.842;37.556;2023-11-22T03:38:02;8.49;90.48
79016;DHT22;72726;44.842;37.556;2023-11-22T03:39:04;8.49;90.50
79016;DHT22;72726;44.842;37.556;2023-11-22T03:40:05;8.46;90.58
79016;DHT22;72726;44.842;37.556;2023-11-22T03:41:07;8.47;90.67
79016;DHT22;72726;44.842;37.556;2023-11-22T03:42:08;8.49;90.64
79016;DHT22;72726;44.842;37.556;2023-11-22T03:43:09;8.47;90.70
79016;DHT22;72726;44.842;37.556;2023-11-22T03:44:11;8.50;90.67
79016;DHT22;72726;44.842;37.556;2023-11-22T03:45:12;8.49;90.63
79016;DHT22;72726;44.842;37.556;2023-11-22T03:46:15;8.50;90.64
79016;DHT22;72726;44.842;37.556;2023-11-22T03:47:16;8.53;90.42
79016;DHT22;72726;44.842;37.556;2023-11-22T03:48:21;8.54;90.33
79016;DHT22;72726;44.842;37.556;2023-11-22T03:49:24;8.53;90.38
79016;DHT22;72726;44.842;37.556;2023-11-22T03:50:25;8.57;90.44
79016;DHT22;72726;44.842;37.556;2023-11-22T03:51:26;8.57;90.44
79016;DHT22;72726;44.842;37.556;2023-11-22T03:52:28;8.56;90.52
79016;DHT22;72726;44.842;37.556;2023-11-22T03:53:29;8.61;90.59
79016;DHT22;72726;44.842;37.556;2023-11-22T03:54:30;8.64;90.55
79016;DHT22;72726;44.842;37.556;2023-11-22T03:55:33;8.63;90.55
79016;DHT22;72726;44.842;37.556;2023-11-22T03:56:34;8.64;90.54
79016;DHT22;72726;44.842;37.556;2023-11-22T03:57:36;8.67;90.54
79016;DHT22;72726;44.842;37.556;2023-11-22T03:58:39;8.70;90.48
79016;DHT22;72726;44.842;37.556;2023-11-22T03:59:41;8.68;90.49
79016;DHT22;72726;44.842;37.556;2023-11-22T04:00:44;8.70;90.42
79016;DHT22;72726;44.842;37.556;2023-11-22T04:01:45;8.73;90.42
79016;DHT22;72726;44.842;37.556;2023-11-22T04:02:46;8.73;90.37
79016;DHT22;72726;44.842;37.556;2023-11-22T04:03:48;8.74;90.35
79016;DHT22;72726;44.842;37.556;2023-11-22T04:04:49;8.77;90.32
79016;DHT22;72726;44.842;37.556;2023-11-22T04:05:51;8.77;90.32
79016;DHT22;72726;44.842;37.556;2023-11-22T04:06:52;8.81;90.31
79016;DHT22;72726;44.842;37.556;2023-11-22T04:07:54;8.78;90.29
79016;DHT22;72726;44.842;37.556;2023-11-22T04:08:55;8.81;90.27
79016;DHT22;72726;44.842;37.556;2023-11-22T04:09:56;8.83;90.26
79016;DHT22;72726;44.842;37.556;2023-11-22T04:10:57;8.83;90.31
79016;DHT22;72726;44.842;37.556;2023-11-22T04:11:59;8.83;90.25
79016;DHT22;72726;44.842;37.556;2023-11-22T04:13:00;8.81;90.23
79016;DHT22;72726;44.842;37.556;2023-11-22T04:14:01;8.84;90.21
79016;DHT22;72726;44.842;37.556;2023-11-22T04:15:04;8.84;90.23
79016;DHT22;72726;44.842;37.556;2023-11-22T04:16:09;8.89;90.27
79016;DHT22;72726;44.842;37.556;2023-11-22T04:17:13;8.89;90.20
79016;DHT22;72726;44.842;37.556;2023-11-22T04:18:14;8.91;90.12
79016;DHT22;72726;44.842;37.556;2023-11-22T04:19:15;8.91;90.15
79016;DHT22;72726;44.842;37.556;2023-11-22T04:20:17;8.92;90.19
79016;DHT22;72726;44.842;37.556;2023-11-22T04:21:18;8.92;90.28
79016;DHT22;72726;44.842;37.556;2023-11-22T04:22:20;8.92;90.31
79016;DHT22;72726;44.842;37.556;2023-11-22T04:23:21;8.94;90.36
79016;DHT22;72726;44.842;37.556;2023-11-22T04:24:22;8.92;90.41
79016;DHT22;72726;44.842;37.556;2023-11-22T04:25:24;8.94;90.48
79016;DHT22;72726;44.842;37.556;2023-11-22T04:26:25;9.00;90.49
79016;DHT22;72726;44.842;37.556;2023-11-22T04:27:27;8.98;90.42
79016;DHT22;72726;44.842;37.556;2023-11-22T04:28:29;9.01;90.37
79016;DHT22;72726;44.842;37.556;2023-11-22T04:29:30;8.98;90.40
79016;DHT22;72726;44.842;37.556;2023-11-22T04:30:32;9.02;90.41
79016;DHT22;72726;44.842;37.556;2023-11-22T04:31:33;9.02;90.46
79016;DHT22;72726;44.842;37.556;2023-11-22T04:32:35;9.04;90.49
79016;DHT22;72726;44.842;37.556;2023-11-22T04:33:37;9.05;90.39
79016;DHT22;72726;44.842;37.556;2023-11-22T04:34:38;9.04;90.35
79016;DHT22;72726;44.842;37.556;2023-11-22T04:35:39;9.04;90.46
79016;DHT22;72726;44.842;37.556;2023-11-22T04:36:42;9.07;90.50
79016;DHT22;72726;44.842;37.556;2023-11-22T04:37:45;9.08;90.51
79016;DHT22;72726;44.842;37.556;2023-11-22T04:38:47;9.12;90.48
79016;DHT22;72726;44.842;37.556;2023-11-22T04:39:50;9.11;90.43
79016;DHT22;72726;44.842;37.556;2023-11-22T04:40:53;9.15;90.37
79016;DHT22;72726;44.842;37.556;2023-11-22T04:41:54;9.14;90.39
79016;DHT22;72726;44.842;37.556;2023-11-22T04:42:55;9.18;90.36
79016;DHT22;72726;44.842;37.556;2023-11-22T04:43:57;9.19;90.37
79016;DHT22;72726;44.842;37.556;2023-11-22T04:44:58;9.23;90.31
79016;DHT22;72726;44.842;37.556;2023-11-22T04:46:00;9.25;90.37
79016;DHT22;72726;44.842;37.556;2023-11-22T04:47:01;9.30;90.29
79016;DHT22;72726;44.842;37.556;2023-11-22T04:48:06;9.32;90.15
79016;DHT22;72726;44.842;37.556;2023-11-22T04:49:10;9.33;90.00
79016;DHT22;72726;44.842;37.556;2023-11-22T04:50:11;9.33;89.93
79016;DHT22;72726;44.842;37.556;2023-11-22T04:51:15;9.35;89.94
79016;DHT22;72726;44.842;37.556;2023-11-22T04:52:17;9.35;89.89
79016;DHT22;72726;44.842;37.556;2023-11-22T04:53:19;9.35;89.83
79016;DHT22;72726;44.842;37.556;2023-11-22T04:54:20;9.35;89.75
79016;DHT22;72726;44.842;37.556;2023-11-22T04:55:21;9.35;89.71
79016;DHT22;72726;44.842;37.556;2023-11-22T04:56:25;9.30;89.75
79016;DHT22;72726;44.842;37.556;2023-11-22T04:57:27;9.33;89.78
79016;DHT22;72726;44.842;37.556;2023-11-22T04:58:28;9.35;89.80
79016;DHT22;72726;44.842;37.556;2023-11-22T04:59:29;9.36;89.85
79016;DHT22;72726;44.842;37.556;2023-11-22T05:00:31;9.36;89.72
79016;DHT22;72726;44.842;37.556;2023-11-22T05:01:32;9.40;89.64
79016;DHT22;72726;44.842;37.556;2023-11-22T05:02:34;9.39;89.65
79016;DHT22;72726;44.842;37.556;2023-11-22T05:03:36;9.39;89.61
79016;DHT22;72726;44.842;37.556;2023-11-22T05:04:38;9.38;89.61
79016;DHT22;72726;44.842;37.556;2023-11-22T05:05:39;9.42;89.58
79016;DHT22;72726;44.842;37.556;2023-11-22T05:06:40;9.42;89.58
79016;DHT22;72726;44.842;37.556;2023-11-22T05:07:42;9.43;89.51
79016;DHT22;72726;44.842;37.556;2023-11-22T05:08:43;9.44;89.52
79016;DHT22;72726;44.842;37.556;2023-11-22T05:09:45;9.46;89.59
79016;DHT22;72726;44.842;37.556;2023-11-22T05:10:46;9.44;89.58
79016;DHT22;72726;44.842;37.556;2023-11-22T05:11:47;9.46;89.58
79016;DHT22;72726;44.842;37.556;2023-11-22T05:12:49;9.46;89.63
79016;DHT22;72726;44.842;37.556;2023-11-22T05:13:50;9.47;89.65
79016;DHT22;72726;44.842;37.556;2023-11-22T05:14:51;9.50;89.67
79016;DHT22;72726;44.842;37.556;2023-11-22T05:15:53;9.50;89.58
79016;DHT22;72726;44.842;37.556;2023-11-22T05:16:55;9.47;89.50
79016;DHT22;72726;44.842;37.556;2023-11-22T05:17:57;9.46;89.55
79016;DHT22;72726;44.842;37.556;2023-11-22T05:18:59;9.47;89.59
79016;DHT22;72726;44.842;37.556;2023-11-22T05:20:00;9.47;89.64
79016;DHT22;72726;44.842;37.556;2023-11-22T05:21:02;9.49;89.56
79016;DHT22;72726;44.842;37.556;2023-11-22T05:22:07;9.51;89.46
79016;DHT22;72726;44.842;37.556;2023-11-22T05:23:08;9.50;89.46
79016;DHT22;72726;44.842;37.556;2023-11-22T05:24:10;9.47;89.56
79016;DHT22;72726;44.842;37.556;2023-11-22T05:25:11;9.49;89.56
79016;DHT22;72726;44.842;37.556;2023-11-22T05:26:12;9.51;89.63
79016;DHT22;72726;44.842;37.556;2023-11-22T05:27:14;9.53;89.53
79016;DHT22;72726;44.842;37.556;2023-11-22T05:28:15;9.54;89.48
79016;DHT22;72726;44.842;37.556;2023-11-22T05:29:16;9.57;89.43
79016;DHT22;72726;44.842;37.556;2023-11-22T05:30:17;9.58;89.43
79016;DHT22;72726;44.842;37.556;2023-11-22T05:31:22;9.58;89.46
79016;DHT22;72726;44.842;37.556;2023-11-22T05:32:24;9.57;89.43
79016;DHT22;72726;44.842;37.556;2023-11-22T05:33:25;9.60;89.46
79016;DHT22;72726;44.842;37.556;2023-11-22T05:34:26;9.63;89.38
79016;DHT22;72726;44.842;37.556;2023-11-22T05:35:28;9.63;89.45
79016;DHT22;72726;44.842;37.556;2023-11-22T05:36:29;9.64;89.46
79016;DHT22;72726;44.842;37.556;2023-11-22T05:37:30;9.66;89.47
79016;DHT22;72726;44.842;37.556;2023-11-22T05:38:32;9.66;89.47
79016;DHT22;72726;44.842;37.556;2023-11-22T05:39:36;9.69;89.57
79016;DHT22;72726;44.842;37.556;2023-11-22T05:40:37;9.74;90.04
79016;DHT22;72726;44.842;37.556;2023-11-22T05:41:39;9.80;90.01
79016;DHT22;72726;44.842;37.556;2023-11-22T05:42:41;9.81;89.76
79016;DHT22;72726;44.842;37.556;2023-11-22T05:43:42;9.84;89.95
79016;DHT22;72726;44.842;37.556;2023-11-22T05:44:43;9.91;90.20
79016;DHT22;72726;44.842;37.556;2023-11-22T05:45:45;9.93;90.11
79016;DHT22;72726;44.842;37.556;2023-11-22T05:46:50;9.94;90.10
79016;DHT22;72726;44.842;37.556;2023-11-22T05:47:52;10.04;90.24
79016;DHT22;72726;44.842;37.556;2023-11-22T05:48:54;10.12;90.57
79016;DHT22;72726;44.842;37.556;2023-11-22T05:49:55;10.22;90.98
79016;DHT22;72726;44.842;37.556;2023-11-22T05:50:56;10.33;91.05
79016;DHT22;72726;44.842;37.556;2023-11-22T05:51:58;10.47;90.83
79016;DHT22;72726;44.842;37.556;2023-11-22T05:52:59;10.64;90.40
79016;DHT22;72726;44.842;37.556;2023-11-22T05:54:01;10.70;89.92
79016;DHT22;72726;44.842;37.556;2023-11-22T05:55:02;10.76;89.73
79016;DHT22;72726;44.842;37.556;2023-11-22T05:56:05;10.84;89.68
79016;DHT22;72726;44.842;37.556;2023-11-22T05:57:06;10.88;89.46
79016;DHT22;72726;44.842;37.556;2023-11-22T05:58:07;10.98;89.22
79016;DHT22;72726;44.842;37.556;2023-11-22T05:59:09;11.04;88.90
79016;DHT22;72726;44.842;37.556;2023-11-22T06:00:10;11.05;88.75
79016;DHT22;72726;44.842;37.556;2023-11-22T06:01:12;11.12;88.62
79016;DHT22;72726;44.842;37.556;2023-11-22T06:02:13;11.18;88.42
79016;DHT22;72726;44.842;37.556;2023-11-22T06:03:14;11.21;88.13
79016;DHT22;72726;44.842;37.556;2023-11-22T06:04:15;11.25;87.72
79016;DHT22;72726;44.842;37.556;2023-11-22T06:05:17;11.35;87.57
79016;DHT22;72726;44.842;37.556;2023-11-22T06:06:18;11.39;86.78
79016;DHT22;72726;44.842;37.556;2023-11-22T06:07:22;11.46;86.30
79016;DHT22;72726;44.842;37.556;2023-11-22T06:08:24;11.53;85.94
79016;DHT22;72726;44.842;37.556;2023-11-22T06:09:25;11.63;85.76
79016;DHT22;72726;44.842;37.556;2023-11-22T06:10:26;11.65;85.49
79016;DHT22;72726;44.842;37.556;2023-11-22T06:11:27;11.69;85.45
79016;DHT22;72726;44.842;37.556;2023-11-22T06:12:29;11.73;85.08
79016;DHT22;72726;44.842;37.556;2023-11-22T06:13:30;11.76;85.02
79016;DHT22;72726;44.842;37.556;2023-11-22T06:14:32;11.77;85.07
79016;DHT22;72726;44.842;37.556;2023-11-22T06:15:33;11.81;84.88
79016;DHT22;72726;44.842;37.556;2023-11-22T06:16:35;11.83;84.90
79016;DHT22;72726;44.842;37.556;2023-11-22T06:17:36;11.87;84.58
79016;DHT22;72726;44.842;37.556;2023-11-22T06:18:37;11.91;84.64
79016;DHT22;72726;44.842;37.556;2023-11-22T06:19:41;11.91;84.58
79016;DHT22;72726;44.842;37.556;2023-11-22T06:20:42;11.94;84.33
79016;DHT22;72726;44.842;37.556;2023-11-22T06:21:44;11.99;84.39
79016;DHT22;72726;44.842;37.556;2023-11-22T06:22:46;11.99;84.48
79016;DHT22;72726;44.842;37.556;2023-11-22T06:23:48;12.02;84.40
79016;DHT22;72726;44.842;37.556;2023-11-22T06:24:50;12.04;84.27
79016;DHT22;72726;44.842;37.556;2023-11-22T06:25:52;12.08;84.04
79016;DHT22;72726;44.842;37.556;2023-11-22T06:26:53;12.11;84.22
79016;DHT22;72726;44.842;37.556;2023-11-22T06:27:54;12.11;83.97
79016;DHT22;72726;44.842;37.556;2023-11-22T06:28:56;12.17;83.92